Data for 05/17/2016

Time Sea-Level Adjusted Pressure Absolute Pressure Temperature Relative Humidity Dew Point   
(mb) (inHg) (mb) (inHg) (C) (F) (%) (C) (F)
00:05 1022 30.18 851 25.13 7.9 46.2 66 2 35.6
00:10 1022 30.18 851 25.13 7.9 46.3 67 2.1 35.8
00:15 1022 30.18 851 25.13 7.9 46.2 66 2 35.6
00:20 1022 30.18 851 25.13 7.9 46.1 66 2 35.6
00:25 1022 30.18 851 25.13 7.8 46.1 67 2 35.6
00:30 1022 30.18 851 25.13 7.8 46.1 66 1.9 35.5
00:35 1022 30.18 851 25.13 7.9 46.1 66 2 35.6
00:40 1022 30.18 851 25.13 7.9 46.1 66 2 35.5
00:45 1022 30.18 851 25.13 7.9 46.2 67 2.1 35.8
00:50 1022 30.18 851 25.13 7.8 46 68 2.2 35.9
00:55 1022 30.18 851 25.13 7.6 45.7 69 2.2 36
01:00 1022 30.18 851 25.13 7.5 45.4 70 2.3 36.1
01:05 1022 30.18 851 25.13 7.4 45.4 69 2.1 35.7
01:10 1022 30.18 851 25.13 7.5 45.5 69 2.2 35.9
01:15 1022 30.18 851 25.13 7.6 45.6 68 2.1 35.8
01:20 1022 30.18 851 25.13 7.6 45.6 68 2.1 35.8
01:25 1022 30.18 851 25.13 7.6 45.6 68 2.1 35.7
01:30 1022 30.18 851 25.13 7.5 45.6 68 2.1 35.8
01:35 1022 30.18 851 25.13 7.5 45.4 68 2 35.6
01:40 1022 30.18 851 25.13 7.5 45.4 68 2 35.6
01:45 1022 30.18 851 25.13 7.5 45.4 68 2 35.6
01:50 1022 30.18 851 25.13 7.4 45.3 68 1.9 35.4
01:55 1022 30.18 851 25.13 7.3 45.2 69 2 35.5
02:00 1022 30.18 851 25.13 7.2 44.9 68 1.8 35.2
02:05 1022 30.18 851 25.13 7.2 45 68 1.8 35.3
02:10 1022 30.18 851 25.13 7.1 44.9 68 1.7 35.1
02:15 1022 30.18 851 25.13 7 44.7 69 1.7 35
02:20 1022 30.18 851 25.13 6.9 44.5 69 1.6 34.9
02:25 1022 30.18 851 25.13 6.8 44.3 69 1.6 34.9
02:30 1022 30.18 851 25.13 6.7 44.1 70 1.6 34.9
02:35 1022 30.18 851 25.13 6.6 44 70 1.6 34.8
02:40 1022 30.18 851 25.13 6.5 43.6 71 1.5 34.8
02:45 1022 30.18 851 25.13 6.3 43.4 72 1.6 34.9
02:50 1022 30.18 851 25.13 6 42.9 72 1.4 34.6
02:55 1022 30.18 851 25.13 6.1 42.9 72 1.5 34.7
03:00 1022 30.18 851 25.13 6 42.8 72 1.4 34.5
03:05 1022 30.18 851 25.13 6 42.8 72 1.4 34.5
03:10 1022 30.18 852 25.16 6 42.8 72 1.3 34.4
03:15 1022 30.18 852 25.16 5.6 42.1 72 1 33.8
03:20 1022 30.18 852 25.16 5.2 41.4 75 1.2 34.1
03:25 1022 30.18 852 25.16 5.7 42.3 72 1.1 33.9
03:30 1022 30.18 852 25.16 6 42.9 71 1.2 34.1
03:35 1022 30.18 852 25.16 6.1 43 71 1.2 34.1
03:40 1022 30.18 852 25.16 6.2 43.2 70 1.2 34.2
03:45 1022 30.18 852 25.16 6.2 43.2 70 1.2 34.1
03:50 1022 30.18 852 25.16 6.1 43 70 1.2 34.1
03:55 1022 30.18 852 25.16 6.2 43.1 70 1.1 34
04:00 1022 30.18 852 25.16 6 42.9 71 1.2 34.1
04:05 1022 30.18 852 25.16 5.9 42.5 72 1.2 34.1
04:10 1022 30.18 852 25.16 5.8 42.5 71 1 33.9
04:15 1022 30.18 852 25.16 5.7 42.3 71 0.8 33.4
04:20 1022 30.18 852 25.16 4.9 40.8 73 0.5 32.9
04:25 1022 30.18 852 25.16 4.8 40.7 73 0.4 32.8
04:30 1022 30.18 852 25.16 4.8 40.6 74 0.4 32.8
04:35 1022 30.18 852 25.16 5 41.1 72 0.4 32.7
04:40 1022 30.18 852 25.16 5.2 41.4 72 0.6 33.1
04:45 1023 30.21 852 25.16 5 41 74 0.7 33.3
04:50 1023 30.21 852 25.16 4.8 40.7 74 0.6 33
04:55 1023 30.21 852 25.16 4.6 40.3 75 0.5 32.9
05:00 1023 30.21 852 25.16 4.3 39.8 76 0.5 32.8
05:05 1023 30.21 852 25.16 4.2 39.6 76 0.4 32.7
05:10 1023 30.21 852 25.16 4.2 39.5 77 0.5 32.8
05:15 1023 30.21 852 25.16 4.5 40.2 75 0.5 32.9
05:20 1023 30.21 852 25.16 4.7 40.5 75 0.6 33.1
05:25 1023 30.21 852 25.16 5 41 73 0.5 32.9
05:30 1023 30.21 852 25.16 5.2 41.3 72 0.6 33
05:35 1023 30.21 852 25.16 5.2 41.3 71 0.3 32.6
05:40 1023 30.21 852 25.16 5.1 41.2 72 0.4 32.7
05:45 1023 30.21 852 25.16 5.1 41.2 71 0.2 32.4
05:50 1023 30.21 852 25.16 5.1 41.1 71 0.2 32.4
05:55 1023 30.21 852 25.16 5 41 71 0.3 32.5
06:00 1023 30.21 852 25.16 5.2 41.3 72 0.4 32.8
06:05 1023 30.21 852 25.16 5.2 41.4 71 0.4 32.8
06:10 1023 30.21 852 25.16 5.7 42.2 68 0.3 32.5
06:15 1023 30.21 852 25.16 6.2 43.1 66 0.3 32.6
06:20 1023 30.21 852 25.16 5.9 42.6 69 0.7 33.2
06:25 1023 30.21 852 25.16 5.9 42.6 67 0.3 32.5
06:30 1023 30.21 853 25.19 6.4 43.4 67 0.7 33.2
06:35 1023 30.21 853 25.19 6.4 43.6 67 0.7 33.3
06:40 1023 30.21 853 25.19 6.5 43.7 66 0.6 33.1
06:45 1023 30.21 853 25.19 6.7 44.1 66 0.8 33.4
06:50 1023 30.21 853 25.19 7.4 45.3 62 0.7 33.3
06:55 1024 30.24 853 25.19 7.9 46.3 62 1.1 34
07:00 1024 30.24 853 25.19 8 46.3 61 1 33.7
07:05 1024 30.24 853 25.19 8.1 46.6 61 1 33.8
07:10 1024 30.24 853 25.19 8.2 46.7 61 1 33.8
07:15 1024 30.24 853 25.19 8.5 47.4 60 1.2 34.1
07:20 1024 30.24 853 25.19 8.8 47.9 60 1.5 34.7
07:25 1024 30.24 853 25.19 8.9 48 58 1.2 34.1
07:30 1024 30.24 853 25.19 9.2 48.5 59 1.5 34.7
07:35 1024 30.24 853 25.19 9.7 49.5 57 1.7 35
07:40 1024 30.24 853 25.19 9.8 49.7 57 1.8 35.3
07:45 1024 30.24 853 25.19 9.6 49.3 58 1.7 35.1
07:50 1024 30.24 853 25.19 9.9 49.8 55 1.4 34.5
07:55 1024 30.24 853 25.19 10.4 50.7 53 1.4 34.5
08:00 1024 30.24 853 25.19 10.2 50.4 55 1.5 34.8
08:05 1024 30.24 853 25.19 11 51.8 52 1.7 35
08:10 1024 30.24 853 25.19 11.3 52.4 52 1.9 35.5
08:15 1024 30.24 853 25.19 11.3 52.4 51 1.6 34.9
08:20 1024 30.24 853 25.19 11.9 53.3 49 1.6 34.9
08:25 1024 30.24 853 25.19 11.8 53.3 51 2.2 35.9
08:30 1024 30.24 853 25.19 11.9 53.4 50 1.8 35.2
08:35 1024 30.24 853 25.19 12.2 54 50 2.1 35.8
08:40 1024 30.24 853 25.19 12.2 54 48 1.7 35.1
08:45 1024 30.24 853 25.19 12.9 55.2 47 1.9 35.4
08:50 1024 30.24 853 25.19 13.1 55.6 47 2 35.6
08:55 1024 30.24 853 25.19 13.5 56.3 45 1.8 35.3
09:00 1024 30.24 853 25.19 13.7 56.6 46 2.5 36.5
09:05 1024 30.24 853 25.19 12.6 54.7 49 2.3 36.1
09:10 1024 30.24 853 25.19 12.8 55.1 47 1.8 35.2
09:15 1024 30.24 853 25.19 13.4 56.1 45 1.9 35.3
09:20 1024 30.24 853 25.19 13.4 56.1 44 1.5 34.7
09:25 1023 30.21 853 25.19 13.8 56.8 44 1.8 35.2
09:30 1023 30.21 853 25.19 13.9 57 44 2.1 35.7
09:35 1023 30.21 853 25.19 13.9 57 45 2.2 35.9
09:40 1023 30.21 853 25.19 13.4 56.1 48 2.5 36.5
09:45 1023 30.21 853 25.19 12.7 54.8 48 1.9 35.5
09:50 1023 30.21 853 25.19 13.9 56.9 43 1.6 34.9
09:55 1023 30.21 853 25.19 14.5 58.1 42 1.8 35.3
10:00 1023 30.21 853 25.19 14.6 58.3 39 1.1 33.9
10:05 1023 30.21 853 25.19 15.1 59.2 40 1.6 34.8
10:10 1023 30.21 853 25.19 15.3 59.6 39 1.7 35.1
10:15 1023 30.21 853 25.19 14.9 58.7 39 1.2 34.2
10:20 1023 30.21 853 25.19 15.2 59.3 38 1.1 34
10:25 1023 30.21 853 25.19 14.8 58.6 43 2.4 36.3
10:30 1023 30.21 853 25.19 13.6 56.5 41 0.5 33
10:35 1023 30.21 852 25.16 13.8 56.9 43 1.5 34.6
10:40 1023 30.21 852 25.16 13.9 57 44 2 35.6
10:45 1023 30.21 853 25.19 14.3 57.7 40 0.8 33.4
10:50 1023 30.21 852 25.16 14.6 58.2 40 1.3 34.4
10:55 1023 30.21 853 25.19 14.6 58.3 39 1.1 34
11:00 1023 30.21 853 25.19 15.5 59.9 38 1.4 34.6
11:05 1023 30.21 852 25.16 15.3 59.5 40 1.7 35.1
11:10 1023 30.21 852 25.16 15.1 59.1 41 2 35.6
11:15 1023 30.21 852 25.16 15.5 59.8 38 1.3 34.4
11:20 1023 30.21 852 25.16 15.5 59.9 40 2 35.5
11:25 1023 30.21 852 25.16 15.5 59.9 41 2.4 36.2
11:30 1023 30.21 852 25.16 15.3 59.6 38 1.2 34.1
11:35 1023 30.21 852 25.16 16 60.8 39 2 35.6
11:40 1023 30.21 852 25.16 16.7 62 34 0.9 33.6
11:45 1023 30.21 852 25.16 16.3 61.3 37 1.7 35.1
11:50 1023 30.21 852 25.16 16.8 62.2 34 0.9 33.7
11:55 1023 30.21 852 25.16 17.5 63.6 31 0.3 32.5
12:00 1023 30.21 852 25.16 16.7 62 37 2.1 35.8
12:05 1023 30.21 852 25.16 15.8 60.4 36 0.7 33.2
12:10 1023 30.21 852 25.16 16.6 61.9 34 0.9 33.6
12:15 1023 30.21 852 25.16 16.6 62 33 0.5 32.9
12:20 1023 30.21 852 25.16 17 62.6 32 0.5 33
12:25 1023 30.21 852 25.16 16.7 62.1 33 0.6 33.1
12:30 1023 30.21 852 25.16 16.3 61.3 33 0 32
12:35 1023 30.21 852 25.16 16.9 62.5 33 0.7 33.2
12:40 1023 30.21 852 25.16 17.3 63.2 30 -0.1 31.9
12:45 1023 30.21 852 25.16 17.4 63.3 31 0.3 32.6
12:50 1023 30.21 852 25.16 17 62.6 32 0.3 32.5
12:55 1022 30.18 852 25.16 17.1 62.7 33 0.7 33.2
13:00 1022 30.18 852 25.16 17.1 62.7 31 -0.1 31.8
13:05 1022 30.18 852 25.16 17.2 62.9 31 0.2 32.3
13:10 1022 30.18 852 25.16 16.9 62.3 33 0.5 32.9
13:15 1022 30.18 851 25.13 16.5 61.7 33 0.2 32.4
13:20 1022 30.18 852 25.16 15.9 60.7 33 -0.1 31.9
13:25 1022 30.18 851 25.13 16.4 61.5 33 0.3 32.6
13:30 1022 30.18 851 25.13 16.6 61.9 33 0.6 33.1
13:35 1022 30.18 851 25.13 16.4 61.4 34 0.6 33
13:40 1022 30.18 851 25.13 17.6 63.6 32 0.7 33.2
13:45 1022 30.18 851 25.13 18 64.4 29 0 32.1
13:50 1022 30.18 851 25.13 17 62.6 30 -0.7 30.7
13:55 1022 30.18 851 25.13 17.6 63.6 31 0.3 32.5
14:00 1022 30.18 851 25.13 18.4 65.1 28 -0.3 31.5
14:05 1022 30.18 851 25.13 18.6 65.4 30 0.8 33.4
14:10 1022 30.18 851 25.13 18 64.3 31 0.6 33.1
14:15 1022 30.18 851 25.13 18.1 64.5 29 -0.1 31.9
14:20 1022 30.18 851 25.13 18.8 65.8 29 0.3 32.6
14:25 1022 30.18 851 25.13 18.7 65.6 31 1.5 34.7
14:30 1022 30.18 851 25.13 18.5 65.4 29 0.4 32.7
14:35 1022 30.18 851 25.13 18.7 65.6 29 0.6 33.1
14:40 1022 30.18 851 25.13 19 66.2 27 -0.1 31.9
14:45 1022 30.18 851 25.13 19.3 66.7 28 0.5 32.8
14:50 1022 30.18 851 25.13 19.2 66.6 28 0.3 32.5
14:55 1022 30.18 851 25.13 18.6 65.5 28 0.1 32.1
15:00 1022 30.18 851 25.13 18.8 65.9 29 0.4 32.7
15:05 1022 30.18 851 25.13 19.2 66.6 29 0.8 33.4
15:10 1022 30.18 851 25.13 19.8 67.6 28 0.8 33.5
15:15 1022 30.18 851 25.13 19.8 67.7 29 1.4 34.4
15:20 1022 30.18 851 25.13 19.2 66.6 30 1.4 34.5
15:25 1021 30.15 851 25.13 18.3 64.9 30 0.5 32.9
15:30 1021 30.15 851 25.13 18.3 65 31 1.1 34
15:35 1021 30.15 851 25.13 18.9 66 30 1 33.8
15:40 1021 30.15 851 25.13 19.4 66.9 30 1.6 34.9
15:45 1021 30.15 851 25.13 19.1 66.3 30 1.2 34.1
15:50 1021 30.15 851 25.13 18.7 65.6 31 1.3 34.4
15:55 1021 30.15 851 25.13 18.8 65.8 30 1 33.8
16:00 1021 30.15 851 25.13 18.9 66 29 0.8 33.4
16:05 1021 30.15 851 25.13 19.3 66.7 29 0.7 33.3
16:10 1021 30.15 850 25.1 19.3 66.7 30 1.4 34.5
16:15 1021 30.15 850 25.1 18.9 66.1 30 1.1 33.9
16:20 1021 30.15 850 25.1 19.3 66.7 29 1 33.9
16:25 1021 30.15 850 25.1 19.2 66.6 29 0.8 33.4
16:30 1021 30.15 850 25.1 19.3 66.7 29 0.9 33.7
16:35 1021 30.15 850 25.1 18.8 65.8 31 1.2 34.2
16:40 1021 30.15 850 25.1 19 66.2 29 0.6 33.1
16:45 1021 30.15 850 25.1 19 66.3 29 0.9 33.6
16:50 1021 30.15 850 25.1 19.5 67.1 28 0.7 33.3
16:55 1021 30.15 850 25.1 19.3 66.8 28 0.6 33.1
17:00 1021 30.15 850 25.1 18.9 66 29 0.6 33
17:05 1021 30.15 850 25.1 18.7 65.7 29 0.4 32.8
17:10 1021 30.15 850 25.1 19.1 66.4 29 0.8 33.5
17:15 1021 30.15 850 25.1 18.8 65.9 28 0.3 32.6
17:20 1021 30.15 850 25.1 18.9 66.1 28 0.4 32.6
17:25 1021 30.15 850 25.1 18.8 65.9 28 0.2 32.4
17:30 1021 30.15 850 25.1 18.8 65.9 29 0.5 32.9
17:35 1021 30.15 850 25.1 18.5 65.3 29 0.3 32.5
17:40 1021 30.15 850 25.1 18.8 65.8 29 0.5 32.9
17:45 1021 30.15 850 25.1 19.1 66.3 28 0.5 32.9
17:50 1021 30.15 850 25.1 18.8 65.8 29 0.6 33.1
17:55 1021 30.15 850 25.1 18.6 65.5 29 0.2 32.4
18:00 1021 30.15 850 25.1 18.7 65.6 29 0.6 33.2
18:05 1021 30.15 850 25.1 18.5 65.3 30 0.5 32.9
18:10 1021 30.15 850 25.1 18.2 64.8 30 0.4 32.7
18:15 1021 30.15 850 25.1 17.9 64.1 31 0.4 32.8
18:20 1021 30.15 850 25.1 17.9 64.1 30 -0 31.9
18:25 1021 30.15 850 25.1 17.8 64 30 0.2 32.3
18:30 1021 30.15 850 25.1 17.8 64 29 -0.4 31.3
18:35 1021 30.15 850 25.1 17.7 63.8 30 -0.1 31.9
18:40 1021 30.15 850 25.1 17.7 63.8 30 0.1 32.1
18:45 1021 30.15 850 25.1 17.6 63.6 30 -0.1 31.8
18:50 1021 30.15 850 25.1 17.5 63.4 30 -0.2 31.6
18:55 1021 30.15 850 25.1 17.3 63.2 30 -0.1 31.9
19:00 1021 30.15 850 25.1 17.2 63 30 -0.3 31.5
19:05 1021 30.15 850 25.1 17.1 62.9 31 -0.1 31.8
19:10 1021 30.15 850 25.1 17.1 62.7 31 -0.1 31.8
19:15 1021 30.15 850 25.1 17 62.5 31 -0.2 31.6
19:20 1021 30.15 850 25.1 16.8 62.3 31 -0.2 31.6
19:25 1021 30.15 850 25.1 16.7 62.1 32 -0 32
19:30 1021 30.15 850 25.1 16.6 61.8 32 0 32
19:35 1021 30.15 850 25.1 16.4 61.5 32 -0 31.9
19:40 1021 30.15 850 25.1 16.2 61.2 33 0.1 32.3
19:45 1021 30.15 850 25.1 16.1 61 33 -0.1 31.8
19:50 1021 30.15 850 25.1 16 60.8 34 0.2 32.4
19:55 1021 30.15 850 25.1 15.9 60.5 34 0.2 32.4
20:00 1021 30.15 850 25.1 15.7 60.2 35 0.4 32.7
20:05 1021 30.15 850 25.1 15.5 59.8 38 1.2 34.2
20:10 1021 30.15 850 25.1 15.2 59.4 41 2.1 35.8
20:15 1021 30.15 850 25.1 14.6 58.3 45 2.9 37.1
20:20 1021 30.15 850 25.1 13.9 56.9 50 3.7 38.7
20:25 1021 30.15 850 25.1 13 55.5 53 3.7 38.7
20:30 1021 30.15 850 25.1 12.7 54.8 53 3.5 38.3
20:35 1021 30.15 850 25.1 12.4 54.4 54 3.5 38.3
20:40 1021 30.15 850 25.1 12.2 54 55 3.5 38.3
20:45 1021 30.15 850 25.1 12.1 53.7 57 3.8 38.8
20:50 1021 30.15 850 25.1 11.8 53.3 57 3.6 38.5
20:55 1021 30.15 850 25.1 11.3 52.3 59 3.7 38.6
21:00 1021 30.15 850 25.1 10.9 51.6 60 3.5 38.4
21:05 1021 30.15 850 25.1 10.7 51.3 58 3 37.3
21:10 1021 30.15 850 25.1 10.8 51.5 57 2.8 37
21:15 1021 30.15 850 25.1 10.8 51.5 58 2.9 37.2
21:20 1021 30.15 851 25.13 10.6 51.2 58 2.8 37.1
21:25 1021 30.15 851 25.13 10.6 51 58 2.8 37
21:30 1021 30.15 851 25.13 10.4 50.7 59 2.7 36.9
21:35 1021 30.15 851 25.13 10.3 50.5 59 2.7 36.9
21:40 1021 30.15 851 25.13 10 50 60 2.7 36.8
21:45 1021 30.15 851 25.13 9.9 49.7 58 2.1 35.9
21:50 1021 30.15 851 25.13 10 50.1 58 2.2 36
21:55 1021 30.15 850 25.1 10.3 50.5 56 2 35.5
22:00 1021 30.15 850 25.1 10.2 50.3 58 2.2 36
22:05 1021 30.15 850 25.1 9.9 49.8 58 2.1 35.8
22:10 1021 30.15 850 25.1 9.7 49.5 58 1.9 35.5
22:15 1021 30.15 850 25.1 9.7 49.5 58 1.9 35.4
22:20 1021 30.15 850 25.1 9.6 49.2 59 2 35.6
22:25 1021 30.15 850 25.1 9.4 48.9 59 1.9 35.4
22:30 1021 30.15 850 25.1 9.2 48.6 59 1.7 35.1
22:35 1021 30.15 850 25.1 9.1 48.5 60 1.7 35.1
22:40 1021 30.15 850 25.1 9 48.3 60 1.7 35.1
22:45 1021 30.15 850 25.1 9 48.2 60 1.6 34.9
22:50 1021 30.15 850 25.1 9.2 48.5 58 1.4 34.5
22:55 1021 30.15 850 25.1 9.2 48.6 60 1.9 35.4
23:00 1021 30.15 850 25.1 9.2 48.6 58 1.4 34.6
23:05 1021 30.15 850 25.1 9 48.2 62 2.1 35.7
23:10 1021 30.15 850 25.1 8.6 47.5 63 1.9 35.4
23:15 1021 30.15 850 25.1 8.5 47.3 62 1.7 35.1
23:20 1021 30.15 850 25.1 8.5 47.3 62 1.6 34.9
23:25 1021 30.15 850 25.1 8.5 47.3 63 1.8 35.3
23:30 1021 30.15 850 25.1 8.4 47.1 64 1.9 35.4
23:35 1021 30.15 850 25.1 8.3 46.9 64 1.8 35.3
23:40 1021 30.15 850 25.1 8.3 47 64 1.9 35.4
23:45 1021 30.15 850 25.1 8.3 47 63 1.7 35
23:50 1021 30.15 850 25.1 8.5 47.2 61 1.5 34.7
23:55 1021 30.15 850 25.1 8.6 47.5 61 1.6 34.9
24:00 1021 30.15 850 25.1 8.6 47.5 61 1.6 34.9